Time;durP1;ratioP1;P1;durP2;ratioP2;P2;SDS_P1;SDS_P2;PMS_P1;PMS_P2;Temp;Humidity;BMP_temperature;BMP_pressure;BME280_temperature;BME280_humidity;BME280_pressure;Samples;Min_cycle;Max_cycle;Signal;HPM_P1;HPM_P2
2023/01/11 00:02:03;;;;;;;;;;;;;;;;;;6219356;23;20348;-81
2023/01/11 00:04:29;;;;;;;;;;;;;;;;;;6218488;23;20345;-81
2023/01/11 00:06:55;;;;;;;;;;;;;;;;;;6245944;23;19920;-81
2023/01/11 00:09:20;;;;;;;;;;;;;;;;;;6193625;23;19915;-81
2023/01/11 00:11:46;;;;;;;;;;;;;;;;;;6243761;23;20311;-81
2023/01/11 00:14:11;;;;;;;;;;;;;;;;;;6243894;23;19912;-82
2023/01/11 00:16:37;;;;;;;;;;;;;;;;;;6216877;23;20250;-80
2023/01/11 00:19:03;;;;;;;;;;;;;;;;;;6191210;23;19919;-81
2023/01/11 00:21:28;;;;;;;;;;;;;;;;;;6244115;23;20276;-81
2023/01/11 00:23:54;;;;;;;;;;;;;;;;;;6243660;23;20647;-79
2023/01/11 00:26:20;;;;;;;;;;;;;;;;;;6242801;23;19919;-80
2023/01/11 00:28:46;;;;;;;;;;;;;;;;;;6243056;23;19946;-80
2023/01/11 00:31:11;;;;;;;;;;;;;;;;;;6244756;23;19922;-81
2023/01/11 00:33:37;;;;;;;;;;;;;;;;;;6244059;23;19911;-80
2023/01/11 00:36:03;;;;;;;;;;;;;;;;;;6245098;23;20257;-81
2023/01/11 00:38:45;;;;;;;;;;;;;;;;;;6242749;23;19985;-79
2023/01/11 00:49:24;;;;;;;;;;;;;;;;;;6244904;23;19911;-81
2023/01/11 00:51:50;;;;;;;;;;;;;;;;;;6218854;23;19987;-81
2023/01/11 00:54:15;;;;;;;;;;;;;;;;;;6243921;23;20545;-81
2023/01/11 00:56:41;;;;;;;;;;;;;;;;;;6244137;23;19919;-80
2023/01/11 00:59:07;;;;;;;;;;;;;;;;;;6245038;23;19911;-81
2023/01/11 01:01:33;;;;;;;;;;;;;;;;;;6253633;23;19918;-81
2023/01/11 01:03:58;;;;;;;;;;;;;;;;;;6201193;23;19912;-81
2023/01/11 01:06:24;;;;;;;;;;;;;;;;;;6223453;23;19965;-81
2023/01/11 01:08:49;;;;;;;;;;;;;;;;;;6198741;23;19919;-81
2023/01/11 01:11:15;;;;;;;;;;;;;;;;;;6246767;23;19912;-81
2023/01/11 01:16:25;;;;;;;;;;;;;;;;;;6222162;23;20137;-81
2023/01/11 01:18:52;;;;;;;;;;;;;;;;;;6235571;23;19954;-82
2023/01/11 01:21:18;;;;;;;;;;;;;;;;;;6239367;23;20540;-83
2023/01/11 01:23:43;;;;;;;;;;;;;;;;;;6265937;23;19911;-81
2023/01/11 01:26:09;;;;;;;;;;;;;;;;;;6186113;23;19970;-83
2023/01/11 01:28:35;;;;;;;;;;;;;;;;;;6267820;23;19949;-83
2023/01/11 01:31:00;;;;;;;;;;;;;;;;;;6244252;23;19911;-84
2023/01/11 01:33:26;;;;;;;;;;;;;;;;;;6246216;22;19923;-85
2023/01/11 01:35:52;;;;;;;;;;;;;;;;;;6211960;23;19911;-83
2023/01/11 01:38:17;;;;;;;;;;;;;;;;;;6236074;23;19931;-82
2023/01/11 01:40:43;;;;;;;;;;;;;;;;;;6233447;23;19912;-82
2023/01/11 01:43:09;;;;;;;;;;;;;;;;;;6258462;23;19912;-82
2023/01/11 01:45:35;;;;;;;;;;;;;;;;;;6262512;23;19930;-80
2023/01/11 01:48:00;;;;;;;;;;;;;;;;;;6266357;23;19912;-81
2023/01/11 01:50:26;;;;;;;;;;;;;;;;;;6236428;23;19912;-81
2023/01/11 01:52:52;;;;;;;;;;;;;;;;;;6229598;23;19965;-81
2023/01/11 01:55:18;;;;;;;;;;;;;;;;;;6259045;23;19957;-81
2023/01/11 01:57:44;;;;;;;;;;;;;;;;;;6251914;23;19941;-81
2023/01/11 02:00:09;;;;;;;;;;;;;;;;;;6246819;23;19934;-81
2023/01/11 02:02:35;;;;;;;;;;;;;;;;;;6221008;23;19935;-81
2023/01/11 02:05:01;;;;;;;;;;;;;;;;;;6220630;23;19919;-81
2023/01/11 02:07:28;;;;;;;;;;;;;;;;;;6247546;23;20014;-82
2023/01/11 02:09:54;;;;;;;;;;;;;;;;;;6229135;23;19912;-82
2023/01/11 02:12:20;;;;;;;;;;;;;;;;;;6226470;23;19918;-82
2023/01/11 02:14:46;;;;;;;;;;;;;;;;;;6223381;23;19911;-80
2023/01/11 02:17:12;;;;;;;;;;;;;;;;;;6252092;23;19919;-81
2023/01/11 02:19:37;;;;;;;;;;;;;;;;;;6228995;23;19912;-81
2023/01/11 02:22:03;;;;;;;;;;;;;;;;;;6256608;23;19947;-81
2023/01/11 02:24:29;;;;;;;;;;;;;;;;;;6255084;23;19911;-81
2023/01/11 02:26:54;;;;;;;;;;;;;;;;;;6253027;23;19915;-80
2023/01/11 02:29:20;;;;;;;;;;;;;;;;;;6250278;23;20419;-81
2023/01/11 02:31:46;;;;;;;;;;;;;;;;;;6250214;23;20260;-82
2023/01/11 02:34:12;;;;;;;;;;;;;;;;;;6263106;23;19930;-82
2023/01/11 02:36:37;;;;;;;;;;;;;;;;;;6238976;23;19934;-82
2023/01/11 02:39:03;;;;;;;;;;;;;;;;;;6265634;23;19915;-81
2023/01/11 02:45:00;;;;;;;;;;;;;;;;;;6263525;23;19915;-82
2023/01/11 02:46:59;;;;;;;;;;;;;;;;;;6259116;23;19941;-81
2023/01/11 02:49:24;;;;;;;;;;;;;;;;;;6250433;23;19951;-81
2023/01/11 02:51:50;;;;;;;;;;;;;;;;;;6219852;23;20379;-82
2023/01/11 02:54:17;;;;;;;;;;;;;;;;;;6252583;23;19895;-83
2023/01/11 02:56:43;;;;;;;;;;;;;;;;;;6274000;23;19912;-84
2023/01/11 02:59:08;;;;;;;;;;;;;;;;;;6248189;23;19923;-83
2023/01/11 03:01:34;;;;;;;;;;;;;;;;;;6218694;23;19924;-84
2023/01/11 03:04:00;;;;;;;;;;;;;;;;;;6241946;23;19927;-82
2023/01/11 03:06:26;;;;;;;;;;;;;;;;;;6242826;23;19920;-82
2023/01/11 03:08:51;;;;;;;;;;;;;;;;;;6243848;23;19903;-82
2023/01/11 03:14:02;;;;;;;;;;;;;;;;;;6231001;23;19961;-81
2023/01/11 03:16:27;;;;;;;;;;;;;;;;;;6231535;23;19911;-81
2023/01/11 03:18:53;;;;;;;;;;;;;;;;;;6232831;23;19935;-81
2023/01/11 03:21:19;;;;;;;;;;;;;;;;;;6232423;23;19916;-80
2023/01/11 03:23:44;;;;;;;;;;;;;;;;;;6231552;23;19912;-81
2023/01/11 03:26:10;;;;;;;;;;;;;;;;;;6232989;23;19919;-81
2023/01/11 03:28:36;;;;;;;;;;;;;;;;;;6234102;23;19960;-80
2023/01/11 03:31:01;;;;;;;;;;;;;;;;;;6231967;23;19912;-81
2023/01/11 03:33:27;;;;;;;;;;;;;;;;;;6233557;23;19935;-81
2023/01/11 03:35:53;;;;;;;;;;;;;;;;;;6237564;23;19919;-81
2023/01/11 03:38:18;;;;;;;;;;;;;;;;;;6235811;23;19911;-81
2023/01/11 03:40:44;;;;;;;;;;;;;;;;;;6232264;23;19919;-80
2023/01/11 03:43:10;;;;;;;;;;;;;;;;;;6226195;23;19919;-79
2023/01/11 03:45:35;;;;;;;;;;;;;;;;;;6226499;23;19928;-79
2023/01/11 03:48:01;;;;;;;;;;;;;;;;;;6236464;23;19990;-81
2023/01/11 03:50:27;;;;;;;;;;;;;;;;;;6235938;23;20334;-79
2023/01/11 03:52:52;;;;;;;;;;;;;;;;;;6226896;23;19918;-80
2023/01/11 03:55:18;;;;;;;;;;;;;;;;;;6232273;23;19931;-80
2023/01/11 03:57:44;;;;;;;;;;;;;;;;;;6240137;23;19916;-79
2023/01/11 04:00:10;;;;;;;;;;;;;;;;;;6237619;23;19903;-80
2023/01/11 04:02:35;;;;;;;;;;;;;;;;;;6239363;23;19943;-79
2023/01/11 04:05:01;;;;;;;;;;;;;;;;;;6237089;23;19939;-80
2023/01/11 04:07:28;;;;;;;;;;;;;;;;;;6236511;23;19919;-78
2023/01/11 04:09:53;;;;;;;;;;;;;;;;;;6233806;23;19915;-79
2023/01/11 04:12:19;;;;;;;;;;;;;;;;;;6236421;23;19916;-77
2023/01/11 04:14:45;;;;;;;;;;;;;;;;;;6239632;23;19892;-77
2023/01/11 04:17:10;;;;;;;;;;;;;;;;;;6241021;23;19920;-79
2023/01/11 04:19:36;;;;;;;;;;;;;;;;;;6212732;23;19907;-78
2023/01/11 04:22:02;;;;;;;;;;;;;;;;;;6240552;23;19920;-80
2023/01/11 04:24:27;;;;;;;;;;;;;;;;;;6240812;23;19916;-79
2023/01/11 04:26:53;;;;;;;;;;;;;;;;;;6233044;23;19927;-81
2023/01/11 04:29:19;;;;;;;;;;;;;;;;;;6221110;23;19923;-82
2023/01/11 04:31:50;;;;;;;;;;;;;;;;;;6223267;23;19918;-80
2023/01/11 04:34:16;;;;;;;;;;;;;;;;;;6223727;23;19916;-79
2023/01/11 04:36:42;;;;;;;;;;;;;;;;;;6217281;23;19958;-80
2023/01/11 04:39:11;;;;;;;;;;;;;;;;;;6217139;23;19919;-81
2023/01/11 04:44:21;;;;;;;;;;;;;;;;;;6213712;23;19955;-81
2023/01/11 04:46:46;;;;;;;;;;;;;;;;;;6214417;23;19962;-80
2023/01/11 04:49:12;;;;;;;;;;;;;;;;;;6215744;23;19912;-80
2023/01/11 04:51:38;;;;;;;;;;;;;;;;;;6222480;23;19966;-79
2023/01/11 04:54:03;;;;;;;;;;;;;;;;;;6219413;23;20345;-80
2023/01/11 04:56:29;;;;;;;;;;;;;;;;;;6220455;23;19916;-80
2023/01/11 04:58:55;;;;;;;;;;;;;;;;;;6221169;23;19912;-79
2023/01/11 05:01:21;;;;;;;;;;;;;;;;;;6216857;23;19919;-80
2023/01/11 05:03:46;;;;;;;;;;;;;;;;;;6221593;23;19974;-78
2023/01/11 05:06:12;;;;;;;;;;;;;;;;;;6218122;23;19927;-79
2023/01/11 05:08:37;;;;;;;;;;;;;;;;;;6218728;23;19922;-78
2023/01/11 05:11:03;;;;;;;;;;;;;;;;;;6228074;23;20003;-78
2023/01/11 05:13:41;;;;;;;;;;;;;;;;;;6220190;23;19999;-79
2023/01/11 05:16:06;;;;;;;;;;;;;;;;;;6219735;23;19915;-79
2023/01/11 05:18:32;;;;;;;;;;;;;;;;;;6224269;23;20557;-81
2023/01/11 05:20:58;;;;;;;;;;;;;;;;;;6238334;23;19916;-82
2023/01/11 05:23:23;;;;;;;;;;;;;;;;;;6236998;23;19904;-81
2023/01/11 05:25:49;;;;;;;;;;;;;;;;;;6232943;23;19931;-81
2023/01/11 05:28:15;;;;;;;;;;;;;;;;;;6222354;23;19911;-81
2023/01/11 05:30:40;;;;;;;;;;;;;;;;;;6236937;23;19916;-81
2023/01/11 05:33:06;;;;;;;;;;;;;;;;;;6236636;23;19896;-82
2023/01/11 05:35:32;;;;;;;;;;;;;;;;;;6237588;23;19931;-81
2023/01/11 05:37:57;;;;;;;;;;;;;;;;;;6233664;23;19912;-81
2023/01/11 05:40:23;;;;;;;;;;;;;;;;;;6236840;23;19912;-81
2023/01/11 05:42:49;;;;;;;;;;;;;;;;;;6239685;23;20082;-82
2023/01/11 05:45:34;;;;;;;;;;;;;;;;;;6214952;23;19923;-82
2023/01/11 05:48:00;;;;;;;;;;;;;;;;;;6242528;23;19908;-82
2023/01/11 05:50:25;;;;;;;;;;;;;;;;;;6239258;23;19964;-79
2023/01/11 05:52:51;;;;;;;;;;;;;;;;;;6237965;23;19916;-78
2023/01/11 05:55:16;;;;;;;;;;;;;;;;;;6211515;23;19916;-79
2023/01/11 05:57:42;;;;;;;;;;;;;;;;;;6213540;23;19979;-78
2023/01/11 06:00:08;;;;;;;;;;;;;;;;;;6238220;23;19999;-80
2023/01/11 06:02:34;;;;;;;;;;;;;;;;;;6232173;23;20265;-81
2023/01/11 06:04:59;;;;;;;;;;;;;;;;;;6237810;23;19912;-75
2023/01/11 06:07:25;;;;;;;;;;;;;;;;;;6239026;23;19932;-83
2023/01/11 06:09:50;;;;;;;;;;;;;;;;;;6239936;23;19919;-82
2023/01/11 06:12:16;;;;;;;;;;;;;;;;;;6237124;23;19922;-81
2023/01/11 06:14:42;;;;;;;;;;;;;;;;;;6229704;23;19912;-82
2023/01/11 06:17:08;;;;;;;;;;;;;;;;;;6226659;23;19911;-80
2023/01/11 06:19:34;;;;;;;;;;;;;;;;;;6226469;23;19918;-81
2023/01/11 06:21:59;;;;;;;;;;;;;;;;;;6225069;23;19971;-80
2023/01/11 06:24:25;;;;;;;;;;;;;;;;;;6224885;23;19912;-83
2023/01/11 06:26:50;;;;;;;;;;;;;;;;;;6221336;23;19920;-81
2023/01/11 06:29:16;;;;;;;;;;;;;;;;;;6222450;23;19896;-82
2023/01/11 06:31:42;;;;;;;;;;;;;;;;;;6222715;23;19919;-82
2023/01/11 06:34:07;;;;;;;;;;;;;;;;;;6228605;23;19942;-82
2023/01/11 06:36:33;;;;;;;;;;;;;;;;;;6225031;23;19932;-81
2023/01/11 06:38:59;;;;;;;;;;;;;;;;;;6225382;23;19919;-82
2023/01/11 06:41:24;;;;;;;;;;;;;;;;;;6217471;23;19912;-79
2023/01/11 06:43:50;;;;;;;;;;;;;;;;;;6214080;23;19942;-81
2023/01/11 06:46:16;;;;;;;;;;;;;;;;;;6217431;23;19920;-81
2023/01/11 06:48:41;;;;;;;;;;;;;;;;;;6216099;23;19912;-81
2023/01/11 06:51:09;;;;;;;;;;;;;;;;;;6218338;23;19947;-82
2023/01/11 06:53:35;;;;;;;;;;;;;;;;;;6214866;23;20312;-82
2023/01/11 06:56:00;;;;;;;;;;;;;;;;;;6219613;23;19958;-82
2023/01/11 06:58:26;;;;;;;;;;;;;;;;;;6220905;23;19912;-81
2023/01/11 07:00:52;;;;;;;;;;;;;;;;;;6222670;23;19956;-82
2023/01/11 07:03:19;;;;;;;;;;;;;;;;;;6226428;23;19912;-81
2023/01/11 07:05:45;;;;;;;;;;;;;;;;;;6222694;23;20345;-80
2023/01/11 07:08:10;;;;;;;;;;;;;;;;;;6218743;23;19912;-81
2023/01/11 07:10:36;;;;;;;;;;;;;;;;;;6225638;23;20361;-83
2023/01/11 07:13:01;;;;;;;;;;;;;;;;;;6241387;23;19923;-82
2023/01/11 07:15:27;;;;;;;;;;;;;;;;;;6231806;23;19911;-82
2023/01/11 07:17:53;;;;;;;;;;;;;;;;;;6229085;23;19911;-81
2023/01/11 07:20:18;;;;;;;;;;;;;;;;;;6228340;23;19916;-83
2023/01/11 07:22:44;;;;;;;;;;;;;;;;;;6227705;23;20006;-81
2023/01/11 07:25:10;;;;;;;;;;;;;;;;;;6222349;23;19920;-80
2023/01/11 07:27:35;;;;;;;;;;;;;;;;;;6228677;23;19912;-80
2023/01/11 07:30:01;;;;;;;;;;;;;;;;;;6206651;23;19912;-81
2023/01/11 07:32:26;;;;;;;;;;;;;;;;;;6227749;23;19912;-80
2023/01/11 07:34:52;;;;;;;;;;;;;;;;;;6228503;23;19982;-81
2023/01/11 07:37:18;;;;;;;;;;;;;;;;;;6225065;23;19912;-80
2023/01/11 07:39:43;;;;;;;;;;;;;;;;;;6223220;23;19912;-79
2023/01/11 07:44:53;;;;;;;;;;;;;;;;;;6217925;23;19912;-84
2023/01/11 07:47:19;;;;;;;;;;;;;;;;;;6224070;23;19931;-83
2023/01/11 07:49:45;;;;;;;;;;;;;;;;;;6220775;23;19911;-81
2023/01/11 07:52:10;;;;;;;;;;;;;;;;;;6214223;23;19972;-80
2023/01/11 07:54:36;;;;;;;;;;;;;;;;;;6190278;23;19916;-80
2023/01/11 07:57:05;;;;;;;;;;;;;;;;;;6214390;23;19912;-80
2023/01/11 07:59:30;;;;;;;;;;;;;;;;;;6213873;23;19919;-80
2023/01/11 08:01:56;;;;;;;;;;;;;;;;;;6188814;23;19912;-81
2023/01/11 08:04:21;;;;;;;;;;;;;;;;;;6216972;23;19912;-81
2023/01/11 08:06:47;;;;;;;;;;;;;;;;;;6189903;23;19998;-80
2023/01/11 08:09:13;;;;;;;;;;;;;;;;;;6216808;23;20675;-81
2023/01/11 08:14:39;;;;;;;;;;;;;;;;;;6215931;23;19935;-81
2023/01/11 08:17:04;;;;;;;;;;;;;;;;;;6215641;23;19926;-82
2023/01/11 08:19:30;;;;;;;;;;;;;;;;;;6219366;23;19919;-82
2023/01/11 08:21:56;;;;;;;;;;;;;;;;;;6217864;23;19912;-81
2023/01/11 08:24:22;;;;;;;;;;;;;;;;;;6216753;23;19991;-83
2023/01/11 08:26:47;;;;;;;;;;;;;;;;;;6215874;23;19920;-81
2023/01/11 08:29:13;;;;;;;;;;;;;;;;;;6217512;23;19912;-81
2023/01/11 08:31:39;;;;;;;;;;;;;;;;;;6218038;23;20007;-80
2023/01/11 08:34:05;;;;;;;;;;;;;;;;;;6190358;23;19912;-80
2023/01/11 08:36:31;;;;;;;;;;;;;;;;;;6214397;23;19912;-81
2023/01/11 08:38:56;;;;;;;;;;;;;;;;;;6214998;23;19912;-80
2023/01/11 08:41:22;;;;;;;;;;;;;;;;;;6217474;23;19912;-82
2023/01/11 08:43:48;;;;;;;;;;;;;;;;;;6215160;23;19912;-81
2023/01/11 08:46:14;;;;;;;;;;;;;;;;;;6189118;23;19919;-81
2023/01/11 08:48:40;;;;;;;;;;;;;;;;;;6219570;23;19954;-83
2023/01/11 08:51:05;;;;;;;;;;;;;;;;;;6223874;23;19943;-83
2023/01/11 08:53:31;;;;;;;;;;;;;;;;;;6217950;23;19966;-80
2023/01/11 08:55:57;;;;;;;;;;;;;;;;;;6218539;23;19938;-81
2023/01/11 08:58:22;;;;;;;;;;;;;;;;;;6223798;23;19950;-82
2023/01/11 09:00:48;;;;;;;;;;;;;;;;;;6189462;23;19974;-80
2023/01/11 09:03:14;;;;;;;;;;;;;;;;;;6189984;23;19956;-82
2023/01/11 09:05:39;;;;;;;;;;;;;;;;;;6222286;23;19924;-81
2023/01/11 09:08:05;;;;;;;;;;;;;;;;;;6195889;23;19920;-83
2023/01/11 09:10:31;;;;;;;;;;;;;;;;;;6223431;23;19911;-82
2023/01/11 09:12:56;;;;;;;;;;;;;;;;;;6210238;23;20370;-78
2023/01/11 09:15:22;;;;;;;;;;;;;;;;;;6212557;23;20356;-80
2023/01/11 09:17:48;;;;;;;;;;;;;;;;;;6212260;23;19916;-79
2023/01/11 09:20:13;;;;;;;;;;;;;;;;;;6212392;23;19919;-77
2023/01/11 09:22:39;;;;;;;;;;;;;;;;;;6212419;23;19918;-78
2023/01/11 09:25:05;;;;;;;;;;;;;;;;;;6210001;23;19923;-79
2023/01/11 09:27:30;;;;;;;;;;;;;;;;;;6184276;23;19912;-77
2023/01/11 09:29:56;;;;;;;;;;;;;;;;;;6210812;23;19919;-83
2023/01/11 09:32:22;;;;;;;;;;;;;;;;;;6228584;23;19931;-82
2023/01/11 09:34:48;;;;;;;;;;;;;;;;;;6228298;23;19918;-84
2023/01/11 09:37:14;;;;;;;;;;;;;;;;;;6224726;23;19919;-83
2023/01/11 09:39:40;;;;;;;;;;;;;;;;;;6215866;23;19912;-80
2023/01/11 09:42:06;;;;;;;;;;;;;;;;;;6210488;23;19950;-80
2023/01/11 09:44:32;;;;;;;;;;;;;;;;;;6211207;23;20032;-80
2023/01/11 09:46:58;;;;;;;;;;;;;;;;;;6213955;23;19924;-81
2023/01/11 09:49:24;;;;;;;;;;;;;;;;;;6213193;23;19911;-80
2023/01/11 09:51:50;;;;;;;;;;;;;;;;;;6214804;23;19966;-81
2023/01/11 09:54:15;;;;;;;;;;;;;;;;;;6213888;23;19912;-81
2023/01/11 09:56:42;;;;;;;;;;;;;;;;;;6215788;23;20367;-82
2023/01/11 09:59:10;;;;;;;;;;;;;;;;;;6223074;23;19923;-84
2023/01/11 10:01:37;;;;;;;;;;;;;;;;;;6214668;23;19919;-80
2023/01/11 10:04:05;;;;;;;;;;;;;;;;;;6213329;23;20364;-80
2023/01/11 10:06:30;;;;;;;;;;;;;;;;;;6211230;23;19923;-81
2023/01/11 10:08:57;;;;;;;;;;;;;;;;;;6214412;23;19973;-79
2023/01/11 10:11:26;;;;;;;;;;;;;;;;;;6188204;23;20229;-81
2023/01/11 10:13:52;;;;;;;;;;;;;;;;;;6195243;23;19935;-83
2023/01/11 10:16:21;;;;;;;;;;;;;;;;;;6219775;23;19919;-83
2023/01/11 10:18:49;;;;;;;;;;;;;;;;;;6213192;23;19923;-80
2023/01/11 10:21:15;;;;;;;;;;;;;;;;;;6187098;23;19912;-78
2023/01/11 10:23:43;;;;;;;;;;;;;;;;;;6213948;23;19977;-80
2023/01/11 10:26:15;;;;;;;;;;;;;;;;;;6211535;23;19931;-81
2023/01/11 10:28:53;;;;;;;;;;;;;;;;;;6213262;23;19911;-82
2023/01/11 10:31:29;;;;;;;;;;;;;;;;;;6213108;23;19935;-79
2023/01/11 10:36:40;;;;;;;;;;;;;;;;;;6213500;23;20273;-78
2023/01/11 10:41:58;;;;;;;;;;;;;;;;;;6214080;23;19916;-82
2023/01/11 10:44:29;;;;;;;;;;;;;;;;;;6219044;23;19955;-81
2023/01/11 10:46:55;;;;;;;;;;;;;;;;;;6218594;23;19920;-79
2023/01/11 10:49:21;;;;;;;;;;;;;;;;;;6213632;23;19912;-82
2023/01/11 10:51:47;;;;;;;;;;;;;;;;;;6212310;23;19918;-80
2023/01/11 10:54:15;;;;;;;;;;;;;;;;;;6216676;23;20337;-81
2023/01/11 10:56:41;;;;;;;;;;;;;;;;;;6219474;23;19919;-81
2023/01/11 10:59:06;;;;;;;;;;;;;;;;;;6221658;23;19931;-82
2023/01/11 11:01:33;;;;;;;;;;;;;;;;;;6222648;23;20299;-82
2023/01/11 11:03:59;;;;;;;;;;;;;;;;;;6221234;23;20011;-80
2023/01/11 11:06:25;;;;;;;;;;;;;;;;;;6228449;23;19919;-84
2023/01/11 11:08:50;;;;;;;;;;;;;;;;;;6192936;23;20340;-81
2023/01/11 11:11:16;;;;;;;;;;;;;;;;;;6216758;23;19915;-82
2023/01/11 11:13:41;;;;;;;;;;;;;;;;;;6214077;23;19912;-81
2023/01/11 11:16:07;;;;;;;;;;;;;;;;;;6214483;23;19920;-80
2023/01/11 11:18:33;;;;;;;;;;;;;;;;;;6213382;23;20256;-80
2023/01/11 11:20:59;;;;;;;;;;;;;;;;;;6215370;23;19987;-80
2023/01/11 11:23:24;;;;;;;;;;;;;;;;;;6213382;23;19912;-81
2023/01/11 11:25:50;;;;;;;;;;;;;;;;;;6216933;23;19920;-82
2023/01/11 11:28:16;;;;;;;;;;;;;;;;;;6221884;23;19912;-82
2023/01/11 11:30:42;;;;;;;;;;;;;;;;;;6230997;23;19912;-82
2023/01/11 11:33:07;;;;;;;;;;;;;;;;;;6213931;23;20361;-79
2023/01/11 11:35:33;;;;;;;;;;;;;;;;;;6209508;23;20002;-78
2023/01/11 11:37:59;;;;;;;;;;;;;;;;;;6209455;23;19923;-79
2023/01/11 11:40:25;;;;;;;;;;;;;;;;;;6208886;23;19919;-78
2023/01/11 11:42:50;;;;;;;;;;;;;;;;;;6211613;23;20257;-78
2023/01/11 11:45:16;;;;;;;;;;;;;;;;;;6210547;23;19919;-77
2023/01/11 11:47:42;;;;;;;;;;;;;;;;;;6211256;23;20238;-77
2023/01/11 11:50:08;;;;;;;;;;;;;;;;;;6211141;23;19995;-76
2023/01/11 11:52:34;;;;;;;;;;;;;;;;;;6211349;23;19943;-77
2023/01/11 11:54:59;;;;;;;;;;;;;;;;;;6185355;23;19912;-78
2023/01/11 11:57:25;;;;;;;;;;;;;;;;;;6210624;23;19911;-79
2023/01/11 11:59:51;;;;;;;;;;;;;;;;;;6210981;23;20333;-79
2023/01/11 12:02:17;;;;;;;;;;;;;;;;;;6210272;23;20329;-80
2023/01/11 12:04:43;;;;;;;;;;;;;;;;;;6213263;23;19911;-80
2023/01/11 12:07:09;;;;;;;;;;;;;;;;;;6212961;23;19947;-78
2023/01/11 12:09:34;;;;;;;;;;;;;;;;;;6211245;23;19919;-80
2023/01/11 12:12:00;;;;;;;;;;;;;;;;;;6210479;23;19918;-79
2023/01/11 12:14:26;;;;;;;;;;;;;;;;;;6208455;23;19911;-79
2023/01/11 12:16:52;;;;;;;;;;;;;;;;;;6209562;23;20001;-79
2023/01/11 12:19:17;;;;;;;;;;;;;;;;;;6209744;23;19912;-78
2023/01/11 12:21:43;;;;;;;;;;;;;;;;;;6209081;23;19912;-81
2023/01/11 12:24:09;;;;;;;;;;;;;;;;;;6213474;23;19916;-79
2023/01/11 12:26:35;;;;;;;;;;;;;;;;;;6212053;23;20312;-78
2023/01/11 12:29:01;;;;;;;;;;;;;;;;;;6186144;23;19950;-79
2023/01/11 12:31:26;;;;;;;;;;;;;;;;;;6212910;23;19982;-80
2023/01/11 12:33:52;;;;;;;;;;;;;;;;;;6218242;23;19912;-81
2023/01/11 12:36:18;;;;;;;;;;;;;;;;;;6227039;23;19911;-81
2023/01/11 12:38:44;;;;;;;;;;;;;;;;;;6228690;23;19939;-82
2023/01/11 12:41:10;;;;;;;;;;;;;;;;;;6231496;23;19912;-84
2023/01/11 12:43:36;;;;;;;;;;;;;;;;;;6228779;23;19916;-82
2023/01/11 12:46:01;;;;;;;;;;;;;;;;;;6217807;23;19920;-81
2023/01/11 12:48:27;;;;;;;;;;;;;;;;;;6216298;23;20459;-80
2023/01/11 12:50:53;;;;;;;;;;;;;;;;;;6211997;23;19912;-80
2023/01/11 12:53:18;;;;;;;;;;;;;;;;;;6213086;23;19934;-80
2023/01/11 12:55:44;;;;;;;;;;;;;;;;;;6215954;23;19912;-81
2023/01/11 12:58:10;;;;;;;;;;;;;;;;;;6222788;23;19964;-82
2023/01/11 13:00:35;;;;;;;;;;;;;;;;;;6225134;23;20187;-82
2023/01/11 13:03:01;;;;;;;;;;;;;;;;;;6227932;23;19908;-82
2023/01/11 13:05:27;;;;;;;;;;;;;;;;;;6217109;23;19973;-82
2023/01/11 13:07:53;;;;;;;;;;;;;;;;;;6219862;23;20312;-81
2023/01/11 13:10:19;;;;;;;;;;;;;;;;;;6228417;23;19923;-82
2023/01/11 13:12:44;;;;;;;;;;;;;;;;;;6242536;23;19923;-84
2023/01/11 13:15:10;;;;;;;;;;;;;;;;;;6242440;23;19920;-86
2023/01/11 13:17:36;;;;;;;;;;;;;;;;;;6241625;23;19916;-84
2023/01/11 13:20:02;;;;;;;;;;;;;;;;;;6239588;22;19924;-85
2023/01/11 13:22:28;;;;;;;;;;;;;;;;;;6266258;23;19911;-84
2023/01/11 13:24:54;;;;;;;;;;;;;;;;;;6270550;23;19891;-83
2023/01/11 13:27:21;;;;;;;;;;;;;;;;;;6264010;23;19895;-84
2023/01/11 13:29:46;;;;;;;;;;;;;;;;;;6266346;23;19920;-84
2023/01/11 13:32:12;;;;;;;;;;;;;;;;;;6262098;23;19934;-83
2023/01/11 13:34:38;;;;;;;;;;;;;;;;;;6211127;23;19911;-83
2023/01/11 13:37:04;;;;;;;;;;;;;;;;;;6258001;23;20006;-83
2023/01/11 13:39:29;;;;;;;;;;;;;;;;;;6229587;23;19912;-83
2023/01/11 13:41:55;;;;;;;;;;;;;;;;;;6262948;23;19912;-85
2023/01/11 13:44:20;;;;;;;;;;;;;;;;;;6267316;23;19911;-84
2023/01/11 13:46:46;;;;;;;;;;;;;;;;;;6270507;23;19911;-84
2023/01/11 13:49:12;;;;;;;;;;;;;;;;;;6244128;23;19918;-84
2023/01/11 13:51:37;;;;;;;;;;;;;;;;;;6241855;23;19918;-83
2023/01/11 13:54:03;;;;;;;;;;;;;;;;;;6266921;23;19918;-84
2023/01/11 13:56:28;;;;;;;;;;;;;;;;;;6242224;23;19951;-84
2023/01/11 13:58:54;;;;;;;;;;;;;;;;;;6268340;23;19912;-84
2023/01/11 14:01:20;;;;;;;;;;;;;;;;;;6233193;23;19951;-81
2023/01/11 14:03:46;;;;;;;;;;;;;;;;;;6262253;23;19915;-83
2023/01/11 14:06:12;;;;;;;;;;;;;;;;;;6234924;23;19919;-83
2023/01/11 14:08:37;;;;;;;;;;;;;;;;;;6262797;23;20359;-84
2023/01/11 14:11:03;;;;;;;;;;;;;;;;;;6261822;23;19911;-83
2023/01/11 14:16:13;;;;;;;;;;;;;;;;;;6233322;23;19935;-81
2023/01/11 14:18:39;;;;;;;;;;;;;;;;;;6253222;23;20349;-81
2023/01/11 14:21:04;;;;;;;;;;;;;;;;;;6259600;23;19919;-82
2023/01/11 14:23:30;;;;;;;;;;;;;;;;;;6262652;23;19912;-82
2023/01/11 14:25:56;;;;;;;;;;;;;;;;;;6232134;23;19930;-81
2023/01/11 14:28:21;;;;;;;;;;;;;;;;;;6256671;23;19918;-82
2023/01/11 14:30:47;;;;;;;;;;;;;;;;;;6215428;23;19969;-82
2023/01/11 14:33:13;;;;;;;;;;;;;;;;;;6271395;22;19915;-83
2023/01/11 14:35:38;;;;;;;;;;;;;;;;;;6239324;22;19931;-83
2023/01/11 14:38:04;;;;;;;;;;;;;;;;;;6263255;23;19915;-84
2023/01/11 14:40:30;;;;;;;;;;;;;;;;;;6260013;23;19915;-83
2023/01/11 14:42:56;;;;;;;;;;;;;;;;;;6249108;23;19915;-82
2023/01/11 14:45:22;;;;;;;;;;;;;;;;;;6202835;23;19915;-83
2023/01/11 14:47:50;;;;;;;;;;;;;;;;;;6239676;23;20263;-83
2023/01/11 14:50:16;;;;;;;;;;;;;;;;;;6238742;23;19916;-85
2023/01/11 14:52:42;;;;;;;;;;;;;;;;;;6236381;23;20340;-84
2023/01/11 14:55:07;;;;;;;;;;;;;;;;;;6182705;23;20284;-82
2023/01/11 14:57:33;;;;;;;;;;;;;;;;;;6255862;23;19911;-82
2023/01/11 15:00:00;;;;;;;;;;;;;;;;;;6258324;23;19994;-81
2023/01/11 15:02:26;;;;;;;;;;;;;;;;;;6254649;23;19915;-82
2023/01/11 15:04:55;;;;;;;;;;;;;;;;;;6227571;23;19934;-82
2023/01/11 15:07:21;;;;;;;;;;;;;;;;;;6228006;23;20364;-83
2023/01/11 15:09:46;;;;;;;;;;;;;;;;;;6235310;23;19922;-83
2023/01/11 15:12:12;;;;;;;;;;;;;;;;;;6229403;23;20348;-83
2023/01/11 15:14:38;;;;;;;;;;;;;;;;;;6251032;23;19911;-81
2023/01/11 15:19:48;;;;;;;;;;;;;;;;;;6248616;23;19935;-82
2023/01/11 15:22:14;;;;;;;;;;;;;;;;;;6256188;23;19942;-83
2023/01/11 15:24:40;;;;;;;;;;;;;;;;;;6235166;23;19922;-81
2023/01/11 15:27:05;;;;;;;;;;;;;;;;;;6230420;22;20363;-84
2023/01/11 15:29:31;;;;;;;;;;;;;;;;;;6226040;23;19911;-86
2023/01/11 15:31:57;;;;;;;;;;;;;;;;;;6195980;23;20067;-82
2023/01/11 15:34:23;;;;;;;;;;;;;;;;;;6228806;23;19935;-81
2023/01/11 15:36:48;;;;;;;;;;;;;;;;;;6218078;23;19912;-80
2023/01/11 15:39:14;;;;;;;;;;;;;;;;;;6223481;23;19947;-83
2023/01/11 15:44:24;;;;;;;;;;;;;;;;;;6239473;23;19896;-84
2023/01/11 15:46:53;;;;;;;;;;;;;;;;;;6240841;23;19904;-84
2023/01/11 15:49:19;;;;;;;;;;;;;;;;;;6221805;23;19912;-82
2023/01/11 15:51:44;;;;;;;;;;;;;;;;;;6215449;23;19920;-80
2023/01/11 15:54:10;;;;;;;;;;;;;;;;;;6211901;23;19912;-80
2023/01/11 15:56:36;;;;;;;;;;;;;;;;;;6220815;23;19907;-79
2023/01/11 15:59:01;;;;;;;;;;;;;;;;;;6227124;23;19951;-84
2023/01/11 16:01:27;;;;;;;;;;;;;;;;;;6231754;23;19908;-83
2023/01/11 16:52:13;;;;;;;;;;;;;;;;;;6219315;23;19967;-82
2023/01/11 16:54:39;;;;;;;;;;;;;;;;;;6238934;23;19956;-81
2023/01/11 16:57:05;;;;;;;;;;;;;;;;;;6236783;23;19911;-82
2023/01/11 16:59:31;;;;;;;;;;;;;;;;;;6236985;23;19919;-83
2023/01/11 17:01:57;;;;;;;;;;;;;;;;;;6243304;23;19902;-83
2023/01/11 17:04:23;;;;;;;;;;;;;;;;;;6238442;23;19916;-83
2023/01/11 17:06:48;;;;;;;;;;;;;;;;;;6236118;23;19935;-82
2023/01/11 17:09:14;;;;;;;;;;;;;;;;;;6263566;23;19935;-82
2023/01/11 17:11:48;;;;;;;;;;;;;;;;;;6267474;23;19911;-83
2023/01/11 17:14:14;;;;;;;;;;;;;;;;;;6266703;23;19923;-81
2023/01/11 17:16:40;;;;;;;;;;;;;;;;;;6240063;23;19911;-82
2023/01/11 17:19:05;;;;;;;;;;;;;;;;;;6211841;23;19962;-84
2023/01/11 17:21:31;;;;;;;;;;;;;;;;;;6238153;23;19934;-85
2023/01/11 17:23:57;;;;;;;;;;;;;;;;;;6267002;23;19891;-85
2023/01/11 17:26:23;;;;;;;;;;;;;;;;;;6212420;23;19924;-83
2023/01/11 17:28:49;;;;;;;;;;;;;;;;;;6216047;23;19956;-82
2023/01/11 17:31:14;;;;;;;;;;;;;;;;;;6232190;22;19950;-85
2023/01/11 17:33:40;;;;;;;;;;;;;;;;;;6187599;23;19924;-82
2023/01/11 17:36:06;;;;;;;;;;;;;;;;;;6252794;22;19918;-83
2023/01/11 17:38:32;;;;;;;;;;;;;;;;;;6256958;22;19915;-83
2023/01/11 17:40:59;;;;;;;;;;;;;;;;;;6250106;22;19923;-83
2023/01/11 17:46:10;;;;;;;;;;;;;;;;;;6267193;22;19927;-82
2023/01/11 17:48:36;;;;;;;;;;;;;;;;;;6270194;22;19922;-83
2023/01/11 17:51:01;;;;;;;;;;;;;;;;;;6264486;23;19916;-83
2023/01/11 17:53:27;;;;;;;;;;;;;;;;;;6258995;23;19912;-82
2023/01/11 17:55:53;;;;;;;;;;;;;;;;;;6259836;23;19912;-82
2023/01/11 17:58:19;;;;;;;;;;;;;;;;;;6265665;23;19912;-83
2023/01/11 18:00:44;;;;;;;;;;;;;;;;;;6229687;23;20482;-83
2023/01/11 18:03:13;;;;;;;;;;;;;;;;;;6253738;23;19916;-84
2023/01/11 18:05:38;;;;;;;;;;;;;;;;;;6251349;23;19926;-82
2023/01/11 18:08:08;;;;;;;;;;;;;;;;;;6222755;23;19911;-84